createdAt,value
2022-09-01T00:01:53.363Z,100.00
2022-09-01T00:04:58.865Z,100.00
2022-09-01T00:08:01.146Z,100.00
2022-09-01T00:11:03.091Z,100.00
2022-09-01T00:14:07.142Z,100.00
2022-09-01T00:17:25.790Z,100.00
2022-09-01T00:20:28.399Z,100.00
2022-09-01T00:23:30.339Z,100.00
2022-09-01T00:26:32.217Z,100.00
2022-09-01T00:29:34.099Z,100.00
2022-09-01T00:32:36.374Z,100.00
2022-09-01T00:35:38.206Z,100.00
2022-09-01T00:38:40.262Z,100.00
2022-09-01T00:41:44.990Z,100.00
2022-09-01T00:44:47.259Z,100.00
2022-09-01T00:47:49.478Z,100.00
2022-09-01T00:50:54.682Z,100.00
2022-09-01T00:53:57.325Z,100.00
2022-09-01T00:56:59.495Z,100.00
2022-09-01T01:00:05.807Z,100.00
2022-09-01T01:03:09.178Z,100.00
2022-09-01T01:06:13.800Z,100.00
2022-09-01T01:09:17.431Z,100.00
2022-09-01T01:12:19.813Z,100.00
2022-09-01T01:15:21.815Z,100.00
2022-09-01T01:18:23.840Z,100.00
2022-09-01T01:21:48.216Z,100.00
2022-09-01T01:24:50.324Z,100.00
2022-09-01T01:27:52.606Z,100.00
2022-09-01T01:30:56.731Z,100.00
2022-09-01T01:33:59.432Z,100.00
2022-09-01T01:37:01.844Z,100.00
2022-09-01T01:40:04.291Z,100.00
2022-09-01T01:43:06.462Z,100.00
2022-09-01T01:46:10.245Z,100.00
2022-09-01T01:49:20.723Z,100.00
2022-09-01T01:52:26.201Z,100.00
2022-09-01T01:55:31.280Z,100.00
2022-09-01T01:58:35.059Z,100.00
2022-09-01T02:01:39.065Z,100.00
2022-09-01T02:04:41.851Z,100.00
2022-09-01T02:07:43.816Z,100.00
2022-09-01T02:10:46.734Z,100.00
2022-09-01T02:13:49.519Z,100.00
2022-09-01T02:16:52.065Z,100.00
2022-09-01T02:19:57.547Z,100.00
2022-09-01T02:23:10.625Z,100.00
2022-09-01T02:26:17.310Z,100.00
2022-09-01T02:29:22.015Z,100.00
2022-09-01T02:32:23.980Z,100.00
2022-09-01T02:35:34.309Z,100.00
2022-09-01T02:38:36.143Z,100.00
2022-09-01T02:41:41.317Z,100.00
2022-09-01T02:44:44.237Z,100.00
2022-09-01T02:47:48.583Z,100.00
2022-09-01T15:22:49.819Z,37.90
2022-09-01T15:25:54.026Z,38.66
2022-09-01T15:28:57.336Z,39.05
2022-09-01T15:31:59.874Z,37.60
2022-09-01T15:35:03.073Z,37.23
2022-09-01T15:38:08.231Z,38.28
2022-09-01T15:41:15.404Z,38.51
2022-09-01T15:44:18.089Z,37.67
2022-09-01T15:47:20.777Z,36.03
2022-09-01T15:50:27.701Z,37.34
2022-09-01T15:53:31.167Z,37.87
2022-09-01T15:56:34.562Z,37.06
2022-09-01T15:59:41.050Z,36.12
2022-09-01T16:02:44.344Z,37.05
2022-09-01T16:05:48.976Z,37.35
2022-09-01T16:08:54.723Z,39.45
2022-09-01T16:12:03.041Z,39.06
2022-09-01T16:15:10.410Z,39.99
2022-09-01T16:18:20.755Z,41.82
2022-09-01T16:21:35.972Z,39.62
2022-09-01T16:24:44.097Z,39.29
2022-09-01T16:27:49.500Z,40.23
2022-09-01T16:30:52.916Z,38.85
2022-09-01T16:33:57.760Z,38.99
2022-09-01T16:37:12.472Z,43.08
2022-09-01T16:40:23.959Z,41.91
2022-09-01T16:43:29.463Z,41.59
2022-09-01T16:46:37.288Z,42.92
2022-09-01T16:49:53.686Z,41.07
2022-09-01T16:53:14.458Z,41.82
2022-09-01T16:56:35.903Z,43.75
2022-09-01T16:59:56.207Z,45.32
2022-09-01T17:03:09.200Z,45.44
2022-09-01T17:06:32.203Z,45.30
2022-09-01T17:09:42.614Z,45.56
2022-09-01T17:12:45.118Z,45.30
2022-09-01T17:15:58.575Z,45.22
2022-09-01T17:19:02.365Z,45.99
2022-09-01T17:22:06.785Z,45.56
2022-09-01T17:25:13.715Z,47.28
2022-09-01T17:28:40.348Z,45.28
2022-09-01T17:31:45.625Z,45.60
2022-09-01T17:35:02.403Z,47.65
2022-09-01T17:38:14.564Z,45.64
2022-09-01T17:41:24.404Z,46.76
2022-09-01T17:44:36.131Z,49.84
2022-09-01T17:47:49.829Z,49.11
2022-09-01T17:51:13.322Z,50.88
2022-09-01T17:54:28.281Z,53.65
2022-09-01T17:57:44.279Z,54.86
2022-09-01T18:00:54.229Z,55.87
2022-09-01T18:04:17.990Z,57.74
2022-09-01T18:07:33.603Z,59.31
2022-09-01T18:10:58.169Z,57.54
2022-09-01T18:14:16.543Z,59.64
2022-09-01T18:17:33.898Z,61.26
2022-09-01T18:20:49.121Z,62.66
2022-09-01T18:23:59.401Z,62.10
2022-09-01T18:27:02.774Z,62.92
2022-09-01T18:30:07.616Z,63.49
2022-09-01T18:33:28.207Z,66.10
2022-09-01T18:36:50.873Z,64.40
2022-09-01T18:40:00.569Z,65.58
2022-09-01T18:43:25.453Z,66.50
2022-09-01T18:46:38.066Z,67.56
2022-09-01T18:50:02.540Z,64.68
2022-09-01T18:53:09.306Z,65.97
2022-09-01T18:56:22.409Z,64.16
2022-09-01T18:59:34.784Z,65.83
2022-09-01T19:02:48.691Z,64.87
2022-09-01T19:06:06.284Z,65.33
2022-09-01T19:09:11.747Z,66.63
2022-09-01T19:12:22.451Z,66.90
2022-09-01T19:16:04.800Z,66.62
2022-09-01T19:19:25.830Z,67.00
2022-09-01T19:22:41.105Z,68.77
2022-09-01T19:25:44.503Z,68.54
2022-09-01T19:28:50.232Z,70.25
2022-09-01T19:32:00.254Z,70.67
2022-09-01T19:35:14.459Z,72.14
2022-09-01T19:38:27.988Z,72.69
2022-09-01T19:41:36.703Z,74.06
2022-09-01T19:44:51.914Z,75.40
2022-09-01T19:47:59.046Z,75.90
2022-09-01T19:51:06.543Z,76.41
2022-09-01T19:54:25.582Z,77.65
2022-09-01T19:57:31.390Z,77.30
2022-09-01T20:00:51.155Z,76.06
2022-09-01T20:03:58.545Z,77.59
2022-09-01T20:07:02.384Z,75.27
2022-09-01T20:10:16.124Z,74.53
2022-09-01T20:13:19.218Z,76.22
2022-09-01T20:16:24.064Z,75.95
2022-09-01T20:19:30.405Z,76.33
2022-09-01T20:22:35.954Z,74.93
2022-09-01T20:25:46.137Z,75.93
2022-09-01T20:28:50.097Z,75.80
2022-09-01T20:32:02.632Z,75.24
2022-09-01T20:35:13.736Z,76.61
2022-09-01T20:39:07.637Z,77.55
2022-09-01T20:42:13.184Z,77.41
2022-09-01T20:45:18.555Z,77.94
2022-09-01T20:48:26.648Z,80.52
2022-09-01T20:51:32.449Z,79.05
2022-09-01T20:54:49.465Z,80.21
2022-09-01T20:57:58.414Z,80.51
2022-09-01T21:01:06.529Z,77.50
2022-09-01T21:04:36.397Z,77.68
2022-09-01T21:07:57.747Z,78.25
2022-09-01T21:11:03.592Z,77.30
2022-09-01T21:14:06.152Z,78.35
2022-09-01T21:17:22.095Z,78.51
2022-09-01T21:20:33.140Z,76.98
2022-09-01T21:23:35.739Z,78.00
2022-09-01T21:26:39.322Z,77.32
2022-09-01T21:29:45.793Z,78.62
2022-09-01T21:32:49.189Z,77.59
2022-09-01T21:35:52.182Z,74.84
2022-09-01T21:38:55.130Z,71.79
2022-09-01T21:41:57.650Z,72.26
2022-09-01T21:45:01.607Z,73.38
2022-09-01T21:48:04.456Z,73.67
2022-09-01T21:51:07.230Z,73.12
2022-09-01T21:54:11.462Z,69.44
2022-09-01T21:57:14.633Z,71.32
2022-09-01T22:00:19.903Z,71.41
2022-09-01T22:03:23.301Z,69.01
2022-09-01T22:06:26.670Z,69.95
2022-09-01T22:09:29.379Z,69.00
2022-09-01T22:12:32.052Z,68.14
2022-09-01T22:15:34.707Z,65.56
2022-09-01T22:18:37.509Z,66.48
2022-09-01T22:21:40.386Z,60.64
2022-09-01T22:24:42.983Z,59.79
2022-09-01T22:27:46.562Z,60.00
2022-09-01T22:30:51.680Z,60.71
2022-09-01T22:33:54.794Z,59.92
2022-09-01T22:36:57.486Z,57.66
2022-09-01T22:39:59.743Z,57.96
2022-09-01T22:43:02.691Z,57.03
2022-09-01T22:46:06.441Z,56.81
2022-09-01T22:49:09.193Z,58.94
2022-09-01T22:52:12.115Z,58.27
2022-09-01T22:55:16.846Z,59.02
2022-09-01T22:58:20.311Z,56.49
2022-09-01T23:01:25.409Z,56.69
2022-09-01T23:04:28.350Z,58.62
2022-09-01T23:07:30.939Z,56.12
2022-09-01T23:10:33.447Z,56.21
2022-09-01T23:13:37.319Z,58.35
2022-09-01T23:16:41.503Z,56.89
2022-09-01T23:19:44.541Z,56.96
2022-09-01T23:22:47.330Z,57.13
2022-09-01T23:25:53.472Z,58.59
2022-09-01T23:28:58.107Z,57.53
2022-09-01T23:32:01.255Z,56.06
2022-09-01T23:35:04.038Z,54.21
2022-09-01T23:38:06.886Z,55.84
2022-09-01T23:41:11.098Z,56.29
2022-09-01T23:44:15.017Z,56.25
2022-09-01T23:47:18.089Z,56.48
2022-09-01T23:50:20.344Z,55.57
2022-09-01T23:53:24.465Z,57.50
2022-09-01T23:56:28.480Z,55.20
2022-09-01T23:59:31.671Z,54.52
